Time;durP1;ratioP1;P1;durP2;ratioP2;P2;SDS_P1;SDS_P2;PMS_P1;PMS_P2;Temp;Humidity;BMP_temperature;BMP_pressure;BME280_temperature;BME280_humidity;BME280_pressure;Samples;Min_cycle;Max_cycle;Signal;HPM_P1;HPM_P2
2021/12/22 00:00:12;;;;;;;56.33;16.30;;;-0.50;99.90;;;;;;5084746;28;20484;-80
2021/12/22 00:02:46;;;;;;;33.63;16.23;;;-0.50;99.90;;;;;;5083293;28;20031;-80
2021/12/22 00:05:13;;;;;;;33.95;15.48;;;-0.50;99.90;;;;;;5083183;28;20020;-80
2021/12/22 00:07:41;;;;;;;37.75;17.35;;;-0.50;99.90;;;;;;5080600;28;20020;-80
2021/12/22 00:10:07;;;;;;;31.70;15.38;;;-0.50;99.90;;;;;;5085535;28;20111;-80
2021/12/22 00:12:32;;;;;;;37.83;17.08;;;-0.40;99.90;;;;;;5081010;28;20107;-79
2021/12/22 00:14:58;;;;;;;32.95;14.90;;;-0.50;99.90;;;;;;5083762;28;20024;-80
2021/12/22 00:17:23;;;;;;;36.22;15.63;;;-0.50;99.90;;;;;;5085520;28;20480;-80
2021/12/22 00:19:49;;;;;;;38.30;15.63;;;-0.50;99.90;;;;;;5081529;28;20108;-80
2021/12/22 00:22:14;;;;;;;34.75;16.10;;;-0.50;99.90;;;;;;5083304;28;20028;-79
2021/12/22 00:24:41;;;;;;;31.67;16.02;;;-0.50;99.90;;;;;;5084862;28;20032;-80
2021/12/22 00:27:08;;;;;;;34.50;15.77;;;-0.50;99.90;;;;;;5080649;28;20028;-80
2021/12/22 00:29:34;;;;;;;40.03;17.45;;;-0.50;99.90;;;;;;5083543;28;20096;-80
2021/12/22 00:32:11;;;;;;;35.42;16.55;;;-0.60;99.90;;;;;;5083704;28;20108;-80
2021/12/22 00:34:47;;;;;;;34.30;15.93;;;-0.50;99.90;;;;;;5079930;28;20130;-80
2021/12/22 00:37:18;;;;;;;36.63;16.70;;;-0.60;99.90;;;;;;5084012;28;20640;-79
2021/12/22 00:39:44;;;;;;;30.38;14.88;;;-0.60;99.90;;;;;;5083016;28;20548;-80
2021/12/22 00:42:12;;;;;;;37.58;16.40;;;-0.60;99.90;;;;;;5079972;28;20537;-80
2021/12/22 00:44:38;;;;;;;31.10;15.25;;;-0.60;99.90;;;;;;5079365;28;20036;-80
2021/12/22 00:47:04;;;;;;;36.30;17.05;;;-0.60;99.90;;;;;;5085276;28;20017;-80
2021/12/22 00:49:30;;;;;;;32.08;16.83;;;-0.50;99.90;;;;;;5079860;28;20024;-80
2021/12/22 00:51:55;;;;;;;36.17;17.00;;;-0.50;99.90;;;;;;5077855;28;20048;-79
2021/12/22 00:54:21;;;;;;;40.90;16.70;;;-0.50;99.90;;;;;;5081526;28;20024;-80
2021/12/22 00:56:47;;;;;;;30.30;16.15;;;-0.60;99.90;;;;;;5080473;28;20032;-79
2021/12/22 00:59:12;;;;;;;33.88;17.40;;;-0.60;99.90;;;;;;5079635;28;20031;-79
2021/12/22 01:01:38;;;;;;;37.33;16.73;;;-0.70;99.90;;;;;;5076525;28;20434;-80
2021/12/22 01:04:04;;;;;;;40.45;17.20;;;-0.70;99.90;;;;;;5079986;28;20067;-80
2021/12/22 01:06:30;;;;;;;36.10;17.02;;;-0.70;99.90;;;;;;5080648;28;20044;-80
2021/12/22 01:08:56;;;;;;;36.05;16.27;;;-0.70;99.90;;;;;;5078581;28;20029;-80
2021/12/22 01:11:22;;;;;;;36.45;17.30;;;-0.80;99.90;;;;;;5082809;28;20090;-80
2021/12/22 01:13:48;;;;;;;35.30;16.77;;;-0.80;99.90;;;;;;5082711;28;20028;-79
2021/12/22 01:16:14;;;;;;;37.53;16.42;;;-0.70;99.90;;;;;;5078157;28;20481;-80
2021/12/22 01:18:41;;;;;;;41.65;17.85;;;-0.70;99.90;;;;;;5084635;28;20498;-80
2021/12/22 01:23:40;;;;;;;36.00;16.70;;;-0.70;99.90;;;;;;5077055;28;20052;-80
2021/12/22 01:26:07;;;;;;;33.55;16.85;;;-0.70;99.90;;;;;;5079943;28;20024;-80
2021/12/22 01:28:40;;;;;;;42.00;17.15;;;-0.80;99.90;;;;;;5083071;28;20017;-80
2021/12/22 01:31:06;;;;;;;39.90;17.42;;;-0.70;99.90;;;;;;5079790;28;20035;-80
2021/12/22 01:33:32;;;;;;;42.22;17.63;;;-0.70;99.90;;;;;;5079063;28;20429;-80
2021/12/22 01:35:58;;;;;;;41.63;17.45;;;-0.70;99.90;;;;;;5083590;28;20039;-80
2021/12/22 01:38:24;;;;;;;40.85;16.80;;;-0.80;99.90;;;;;;5082822;28;20027;-80
2021/12/22 01:40:51;;;;;;;37.13;16.40;;;-0.80;99.90;;;;;;5081727;28;20029;-80
2021/12/22 01:43:17;;;;;;;37.17;18.60;;;-0.80;99.90;;;;;;5079760;28;20020;-80
2021/12/22 01:51:45;;;;;;;32.47;15.23;;;-0.80;99.90;;;;;;5080275;28;20046;-80
2021/12/22 01:54:34;;;;;;;35.15;17.55;;;-0.80;99.90;;;;;;5078711;28;20278;-80
2021/12/22 01:57:06;;;;;;;35.95;16.23;;;-0.90;99.90;;;;;;5082695;28;20055;-80
2021/12/22 01:59:32;;;;;;;33.92;16.80;;;-0.80;99.90;;;;;;5083334;28;20025;-80
2021/12/22 02:01:59;;;;;;;40.35;17.10;;;-0.80;99.90;;;;;;5081331;28;20036;-80
2021/12/22 02:04:25;;;;;;;35.47;17.77;;;-0.90;99.90;;;;;;5079045;28;20025;-80
2021/12/22 02:06:50;;;;;;;34.05;17.55;;;-0.80;99.90;;;;;;5080767;28;21465;-80
2021/12/22 02:11:58;;;;;;;40.80;17.35;;;-0.80;99.90;;;;;;5085145;28;21474;-80
2021/12/22 02:14:24;;;;;;;36.05;17.17;;;-0.90;99.90;;;;;;5080217;28;20158;-80
2021/12/22 02:16:49;;;;;;;37.42;17.92;;;-0.90;99.90;;;;;;5081614;28;20047;-80
2021/12/22 02:19:15;;;;;;;34.15;17.67;;;-0.90;99.90;;;;;;5077532;28;20020;-81
2021/12/22 02:21:47;;;;;;;31.40;17.17;;;-0.90;99.90;;;;;;5079916;28;20060;-80
2021/12/22 02:24:13;;;;;;;39.83;19.13;;;-0.90;99.90;;;;;;5081603;28;20024;-80
2021/12/22 02:26:51;;;;;;;38.25;18.30;;;-0.90;99.90;;;;;;5074854;28;20424;-80
2021/12/22 02:29:20;;;;;;;39.38;16.92;;;-0.90;99.90;;;;;;5081204;28;20025;-81
2021/12/22 02:32:15;;;;;;;39.67;17.52;;;-0.90;99.90;;;;;;5078128;28;20035;-80
2021/12/22 02:34:44;;;;;;;34.58;17.48;;;-0.90;99.90;;;;;;5078097;28;20025;-80
2021/12/22 02:37:14;;;;;;;42.03;18.45;;;-0.90;99.90;;;;;;5078431;28;20012;-80
2021/12/22 02:40:08;;;;;;;32.22;16.27;;;-0.90;99.90;;;;;;5081481;28;20099;-79
2021/12/22 02:42:34;;;;;;;37.10;16.50;;;-0.90;99.90;;;;;;5078640;28;20065;-80
2021/12/22 02:45:15;;;;;;;33.25;15.73;;;-0.90;99.90;;;;;;5077991;28;20077;-80
2021/12/22 02:47:41;;;;;;;31.35;15.57;;;-0.90;99.90;;;;;;5081641;28;20023;-80
2021/12/22 02:50:09;;;;;;;37.70;17.00;;;-0.90;99.90;;;;;;5079464;28;20021;-80
2021/12/22 02:52:49;;;;;;;30.80;15.43;;;-0.90;99.90;;;;;;5081676;28;20032;-80
2021/12/22 02:55:15;;;;;;;34.22;16.75;;;-0.90;99.90;;;;;;5077199;28;20055;-80
2021/12/22 02:57:46;;;;;;;34.90;15.40;;;-0.90;99.90;;;;;;5082037;28;20060;-80
2021/12/22 03:03:09;;;;;;;28.95;15.82;;;-0.90;99.90;;;;;;5093233;28;20075;-78
2021/12/22 03:05:36;;;;;;;34.05;16.02;;;-0.90;99.90;;;;;;5090081;28;20020;-80
2021/12/22 03:08:02;;;;;;;30.23;14.60;;;-1.00;99.90;;;;;;5084710;28;20040;-80
2021/12/22 03:10:28;;;;;;;30.02;14.90;;;-1.00;99.90;;;;;;5085990;28;20127;-80
2021/12/22 03:13:01;;;;;;;32.83;14.70;;;-1.00;99.90;;;;;;5080122;28;20071;-80
2021/12/22 03:15:27;;;;;;;34.53;15.48;;;-1.00;99.90;;;;;;5087362;28;20058;-80
2021/12/22 03:17:52;;;;;;;35.83;16.50;;;-1.00;99.90;;;;;;5088365;28;20465;-80
2021/12/22 03:20:18;;;;;;;31.95;16.85;;;-1.00;99.90;;;;;;5083559;28;20511;-80
2021/12/22 03:22:46;;;;;;;40.33;17.83;;;-1.00;99.90;;;;;;5088176;28;20039;-80
2021/12/22 03:25:15;;;;;;;37.40;16.80;;;-1.10;99.90;;;;;;5084675;28;20035;-80
2021/12/22 03:27:46;;;;;;;34.45;15.90;;;-1.00;99.90;;;;;;5081447;28;20048;-80
2021/12/22 03:30:13;;;;;;;36.00;14.85;;;-1.10;99.90;;;;;;5085533;28;20089;-80
2021/12/22 03:32:39;;;;;;;30.70;16.00;;;-1.10;99.90;;;;;;5078617;28;20494;-80
2021/12/22 03:35:06;;;;;;;31.58;15.38;;;-1.10;99.90;;;;;;5082609;28;20028;-79
2021/12/22 03:37:32;;;;;;;28.60;15.38;;;-1.10;99.90;;;;;;5084319;28;20536;-80
2021/12/22 03:39:58;;;;;;;28.33;14.38;;;-1.10;99.90;;;;;;5082480;28;20111;-80
2021/12/22 03:42:23;;;;;;;33.17;15.10;;;-1.10;99.90;;;;;;5086569;28;20495;-80
2021/12/22 03:44:49;;;;;;;30.88;15.18;;;-1.10;99.90;;;;;;5079563;28;20024;-80
2021/12/22 03:47:15;;;;;;;30.42;15.55;;;-1.10;99.90;;;;;;5080147;28;20008;-80
2021/12/22 03:49:40;;;;;;;30.52;14.90;;;-1.10;99.90;;;;;;5084350;28;20020;-80
2021/12/22 03:52:06;;;;;;;30.40;15.52;;;-1.10;99.90;;;;;;5088602;28;20081;-79
2021/12/22 03:54:32;;;;;;;27.67;15.48;;;-1.10;99.90;;;;;;5082740;28;20028;-80
2021/12/22 03:56:58;;;;;;;29.35;13.98;;;-1.10;99.90;;;;;;5078563;28;20965;-80
2021/12/22 03:59:24;;;;;;;36.60;14.85;;;-1.10;99.90;;;;;;5079982;28;20024;-81
2021/12/22 04:01:52;;;;;;;28.77;14.57;;;-1.10;99.90;;;;;;5087601;28;20020;-81
2021/12/22 04:04:19;;;;;;;34.53;14.77;;;-1.10;99.90;;;;;;5079789;28;20093;-80
2021/12/22 04:06:46;;;;;;;30.23;14.18;;;-1.20;99.90;;;;;;5083621;28;20055;-80
2021/12/22 04:09:14;;;;;;;28.00;13.07;;;-1.20;99.90;;;;;;5083727;28;20059;-80
2021/12/22 04:11:40;;;;;;;32.85;14.70;;;-1.20;99.90;;;;;;5085749;28;20409;-80
2021/12/22 04:14:06;;;;;;;38.25;15.20;;;-1.20;99.90;;;;;;5084272;28;20126;-80
2021/12/22 04:16:32;;;;;;;32.55;15.98;;;-1.20;99.90;;;;;;5084478;28;20036;-80
2021/12/22 04:18:58;;;;;;;27.58;13.30;;;-1.20;99.90;;;;;;5082589;28;20389;-80
2021/12/22 04:21:23;;;;;;;28.15;14.70;;;-1.20;99.90;;;;;;5081607;28;20024;-80
2021/12/22 04:23:49;;;;;;;25.50;12.98;;;-1.20;99.90;;;;;;5089099;28;20020;-81
2021/12/22 04:26:16;;;;;;;28.75;14.00;;;-1.30;99.90;;;;;;5085032;28;20036;-80
2021/12/22 04:28:42;;;;;;;28.92;13.98;;;-1.40;99.90;;;;;;5088343;28;20024;-81
2021/12/22 04:31:08;;;;;;;27.45;13.40;;;-1.40;99.90;;;;;;5085475;28;20096;-81
2021/12/22 04:33:33;;;;;;;34.25;13.43;;;-1.40;99.90;;;;;;5084374;28;20391;-81
2021/12/22 04:35:59;;;;;;;29.58;13.48;;;-1.40;99.90;;;;;;5086301;28;20122;-81
2021/12/22 04:38:25;;;;;;;28.23;13.88;;;-1.40;99.90;;;;;;5081247;28;20032;-81
2021/12/22 04:40:50;;;;;;;28.17;13.63;;;-1.40;99.90;;;;;;5083268;28;20070;-77
2021/12/22 04:43:16;;;;;;;27.38;13.43;;;-1.40;99.90;;;;;;5081689;28;20133;-77
2021/12/22 04:45:42;;;;;;;30.25;13.38;;;-1.30;99.90;;;;;;5084714;28;20027;-77
2021/12/22 04:48:09;;;;;;;26.83;13.05;;;-1.30;99.90;;;;;;5084432;28;20478;-77
2021/12/22 04:50:36;;;;;;;29.73;14.43;;;-1.40;99.90;;;;;;5079745;28;20043;-77
2021/12/22 04:53:09;;;;;;;27.73;12.88;;;-1.30;99.90;;;;;;5083713;28;20094;-77
2021/12/22 04:55:35;;;;;;;26.42;13.20;;;-1.30;99.90;;;;;;5088371;28;20480;-77
2021/12/22 04:58:00;;;;;;;29.23;14.13;;;-1.30;99.90;;;;;;5082534;28;20028;-77
2021/12/22 05:00:29;;;;;;;25.70;12.93;;;-1.30;99.90;;;;;;5083903;28;20020;-76
2021/12/22 05:02:55;;;;;;;26.10;13.27;;;-1.40;99.90;;;;;;5080515;28;20035;-77
2021/12/22 05:05:21;;;;;;;26.35;12.23;;;-1.40;99.90;;;;;;5085693;28;20070;-76
2021/12/22 05:07:47;;;;;;;23.85;12.82;;;-1.40;99.90;;;;;;5080959;28;20043;-76
2021/12/22 05:10:15;;;;;;;23.80;12.98;;;-1.40;99.90;;;;;;5081218;28;20040;-75
2021/12/22 05:12:42;;;;;;;27.35;13.43;;;-1.40;99.90;;;;;;5080896;28;20021;-76
2021/12/22 05:15:08;;;;;;;30.05;13.13;;;-1.40;99.90;;;;;;5082252;28;20058;-77
2021/12/22 05:20:09;;;;;;;24.00;12.55;;;-1.40;99.90;;;;;;5078204;28;20028;-73
2021/12/22 05:22:35;;;;;;;30.38;13.43;;;-1.40;99.90;;;;;;5082940;28;20423;-76
2021/12/22 05:25:02;;;;;;;24.63;12.57;;;-1.40;99.90;;;;;;5076535;28;20077;-76
2021/12/22 05:27:29;;;;;;;23.60;11.70;;;-1.50;99.90;;;;;;5081846;28;20033;-76
2021/12/22 05:29:55;;;;;;;30.02;12.90;;;-1.50;99.90;;;;;;5083191;28;20464;-75
2021/12/22 05:32:24;;;;;;;25.75;12.73;;;-1.50;99.90;;;;;;5084548;28;20025;-76
2021/12/22 05:34:50;;;;;;;24.65;12.63;;;-1.50;99.90;;;;;;5081174;28;20070;-76
2021/12/22 05:37:15;;;;;;;27.00;12.68;;;-1.50;99.90;;;;;;5084379;28;20089;-75
2021/12/22 05:39:41;;;;;;;28.27;14.48;;;-1.50;99.90;;;;;;5080664;28;20043;-76
2021/12/22 05:42:07;;;;;;;28.42;12.38;;;-1.50;99.90;;;;;;5081061;28;20541;-77
2021/12/22 05:44:33;;;;;;;28.33;13.30;;;-1.50;99.90;;;;;;5083043;28;20037;-76
2021/12/22 05:46:58;;;;;;;25.95;13.55;;;-1.50;99.90;;;;;;5086663;28;20028;-76
2021/12/22 05:49:24;;;;;;;28.75;12.85;;;-1.50;99.90;;;;;;5077805;28;20028;-76
2021/12/22 05:51:50;;;;;;;25.80;12.02;;;-1.50;99.90;;;;;;5083706;28;20062;-76
2021/12/22 05:54:15;;;;;;;22.55;11.88;;;-1.50;99.90;;;;;;5079251;28;20114;-76
2021/12/22 05:56:41;;;;;;;21.35;12.18;;;-1.50;99.90;;;;;;5079288;28;20070;-77
2021/12/22 05:59:07;;;;;;;33.67;12.40;;;-1.50;99.90;;;;;;5081766;28;20085;-76
2021/12/22 06:01:32;;;;;;;23.05;12.10;;;-1.50;99.90;;;;;;5088965;28;20039;-76
2021/12/22 06:04:00;;;;;;;26.90;12.25;;;-1.50;99.90;;;;;;5082200;28;20036;-76
2021/12/22 06:06:26;;;;;;;26.60;12.40;;;-1.60;99.90;;;;;;5085038;28;20428;-76
2021/12/22 06:08:52;;;;;;;32.80;13.23;;;-1.60;99.90;;;;;;5083463;28;20486;-76
2021/12/22 06:11:18;;;;;;;28.77;13.07;;;-1.60;99.90;;;;;;5083823;28;20043;-76
2021/12/22 06:13:44;;;;;;;26.13;12.20;;;-1.60;99.90;;;;;;5080485;28;20107;-75
2021/12/22 06:16:10;;;;;;;26.52;12.32;;;-1.60;99.90;;;;;;5077557;28;20539;-76
2021/12/22 06:18:42;;;;;;;27.92;13.00;;;-1.60;99.90;;;;;;5081677;28;20031;-76
2021/12/22 06:21:07;;;;;;;32.03;12.45;;;-1.60;99.90;;;;;;5081992;28;20461;-76
2021/12/22 06:23:33;;;;;;;26.00;12.45;;;-1.70;99.90;;;;;;5078763;28;20024;-76
2021/12/22 06:25:59;;;;;;;27.88;13.68;;;-1.60;99.90;;;;;;5079564;28;20032;-76
2021/12/22 06:28:24;;;;;;;25.65;12.88;;;-1.60;99.90;;;;;;5081313;28;20082;-76
2021/12/22 06:30:50;;;;;;;30.80;14.55;;;-1.60;99.90;;;;;;5080447;28;20396;-76
2021/12/22 06:33:15;;;;;;;27.60;13.50;;;-1.60;99.90;;;;;;5082003;28;20036;-76
2021/12/22 06:35:41;;;;;;;21.90;13.45;;;-1.60;99.90;;;;;;5078453;28;20040;-76
2021/12/22 06:38:07;;;;;;;28.00;13.75;;;-1.60;99.90;;;;;;5077196;28;20024;-76
2021/12/22 06:40:33;;;;;;;27.25;13.85;;;-1.60;99.90;;;;;;5080542;28;20036;-76
2021/12/22 06:42:59;;;;;;;23.70;13.45;;;-1.70;99.90;;;;;;5079144;28;20502;-76
2021/12/22 06:45:25;;;;;;;24.95;12.73;;;-1.70;99.90;;;;;;5079676;28;20032;-76
2021/12/22 06:47:52;;;;;;;27.65;13.27;;;-1.60;99.90;;;;;;5078956;28;20488;-76
2021/12/22 06:50:18;;;;;;;22.92;12.57;;;-1.60;99.90;;;;;;5080820;28;20037;-76
2021/12/22 06:52:44;;;;;;;23.92;12.40;;;-1.60;99.90;;;;;;5081062;28;20043;-76
2021/12/22 06:55:10;;;;;;;23.92;11.60;;;-1.60;99.90;;;;;;5089387;28;20377;-76
2021/12/22 06:57:36;;;;;;;20.55;11.68;;;-1.70;99.90;;;;;;5087176;28;20036;-75
2021/12/22 07:00:05;;;;;;;28.50;12.82;;;-1.60;99.90;;;;;;5080399;28;20062;-76
2021/12/22 07:02:35;;;;;;;25.25;12.25;;;-1.70;99.90;;;;;;5080988;28;20592;-76
2021/12/22 07:05:01;;;;;;;25.10;12.05;;;-1.70;99.90;;;;;;5083336;28;20020;-76
2021/12/22 07:07:27;;;;;;;30.10;12.40;;;-1.70;99.90;;;;;;5079224;28;20567;-75
2021/12/22 07:09:52;;;;;;;29.98;12.55;;;-1.70;99.90;;;;;;5082556;28;20056;-76
2021/12/22 07:12:18;;;;;;;27.30;12.18;;;-1.70;99.90;;;;;;5084964;28;20071;-76
2021/12/22 07:14:43;;;;;;;26.55;11.05;;;-1.60;99.90;;;;;;5081800;28;20021;-76
2021/12/22 07:17:10;;;;;;;22.13;10.93;;;-1.60;99.90;;;;;;5076650;28;20115;-76
2021/12/22 07:19:36;;;;;;;22.92;11.52;;;-1.60;99.90;;;;;;5083048;28;20042;-76
2021/12/22 07:22:01;;;;;;;24.75;11.43;;;-1.70;99.90;;;;;;5080346;28;20028;-77
2021/12/22 07:24:27;;;;;;;26.00;11.32;;;-1.70;99.90;;;;;;5079387;28;20093;-76
2021/12/22 07:26:53;;;;;;;23.23;10.55;;;-1.80;99.90;;;;;;5082431;28;20104;-77
2021/12/22 07:29:19;;;;;;;22.00;10.80;;;-1.70;99.90;;;;;;5082712;28;20032;-76
2021/12/22 07:31:45;;;;;;;21.40;10.85;;;-1.80;99.90;;;;;;5082790;28;20028;-76
2021/12/22 07:34:19;;;;;;;25.05;12.35;;;-1.70;99.90;;;;;;5078700;28;20111;-76
2021/12/22 07:37:03;;;;;;;26.48;12.32;;;-1.70;99.90;;;;;;5079032;28;20031;-76
2021/12/22 07:39:28;;;;;;;27.85;12.00;;;-1.70;99.90;;;;;;5078962;28;20017;-76
2021/12/22 07:41:54;;;;;;;22.02;11.75;;;-1.70;99.90;;;;;;5078514;28;20028;-76
2021/12/22 07:44:20;;;;;;;28.13;12.57;;;-1.70;99.90;;;;;;5085471;28;20024;-76
2021/12/22 07:46:45;;;;;;;24.48;12.32;;;-1.70;99.90;;;;;;5087068;28;20019;-76
2021/12/22 07:49:11;;;;;;;25.90;13.43;;;-1.60;99.90;;;;;;5086757;28;20024;-76
2021/12/22 07:51:37;;;;;;;23.45;12.45;;;-1.60;99.90;;;;;;5091852;28;20377;-76
2021/12/22 07:54:03;;;;;;;29.40;13.18;;;-1.70;99.90;;;;;;5087660;28;20031;-76
2021/12/22 07:56:29;;;;;;;23.45;12.98;;;-1.70;99.90;;;;;;5089517;28;20036;-76
2021/12/22 07:58:55;;;;;;;27.20;13.15;;;-1.70;99.90;;;;;;5089822;28;20039;-75
2021/12/22 08:01:21;;;;;;;27.65;12.23;;;-1.70;99.90;;;;;;5084379;28;20480;-76
2021/12/22 08:03:47;;;;;;;23.60;12.80;;;-1.70;99.90;;;;;;5085717;28;20052;-76
2021/12/22 08:06:14;;;;;;;19.02;10.00;;;-1.70;99.90;;;;;;5084664;28;20027;-77
2021/12/22 08:08:40;;;;;;;23.67;11.73;;;-1.70;99.90;;;;;;5084696;28;20062;-76
2021/12/22 08:11:06;;;;;;;26.00;12.35;;;-1.70;99.90;;;;;;5086162;28;20089;-76
2021/12/22 08:13:32;;;;;;;25.15;11.95;;;-1.70;99.90;;;;;;5080234;28;20031;-76
2021/12/22 08:15:58;;;;;;;26.65;11.30;;;-1.70;99.90;;;;;;5082717;28;20032;-76
2021/12/22 08:18:24;;;;;;;24.08;12.18;;;-1.70;99.90;;;;;;5080783;28;20362;-76
2021/12/22 08:20:50;;;;;;;25.00;11.30;;;-1.70;99.90;;;;;;5081352;28;20039;-77
2021/12/22 08:23:18;;;;;;;24.40;10.88;;;-1.60;99.90;;;;;;5082718;28;20028;-76
2021/12/22 08:25:44;;;;;;;26.35;11.52;;;-1.70;99.90;;;;;;5079981;28;20417;-76
2021/12/22 08:28:10;;;;;;;30.70;12.45;;;-1.60;99.90;;;;;;5079795;28;20025;-76
2021/12/22 08:30:36;;;;;;;27.90;12.52;;;-1.60;99.90;;;;;;5083747;28;20381;-75
2021/12/22 08:33:09;;;;;;;29.05;12.43;;;-1.60;99.90;;;;;;5078965;28;20042;-77
2021/12/22 08:38:50;;;;;;;;;;;-1.60;99.90;;;;;;5081491;28;20028;-78
2021/12/22 08:41:04;;;;;;;27.92;11.27;;;-1.50;99.90;;;;;;5083295;28;20109;-72
2021/12/22 08:43:30;;;;;;;26.15;11.65;;;-1.40;99.90;;;;;;5080584;28;20464;-75
2021/12/22 08:45:56;;;;;;;26.88;12.88;;;-1.50;99.90;;;;;;5078928;28;20036;-76
2021/12/22 08:48:21;;;;;;;20.58;10.13;;;-1.40;99.90;;;;;;5080197;28;20032;-74
2021/12/22 08:50:47;;;;;;;27.73;13.50;;;-1.40;99.90;;;;;;5079212;28;20435;-78
2021/12/22 08:53:12;;;;;;;21.95;12.82;;;-1.40;99.90;;;;;;5080577;28;20035;-79
2021/12/22 08:55:38;;;;;;;29.00;13.57;;;-1.30;99.90;;;;;;5077124;28;20031;-78
2021/12/22 08:58:04;;;;;;;29.13;13.30;;;-1.30;99.90;;;;;;5081311;28;20029;-79
2021/12/22 09:00:31;;;;;;;25.98;13.00;;;-1.30;99.90;;;;;;5083217;28;20029;-78
2021/12/22 09:02:57;;;;;;;21.25;12.05;;;-1.30;99.90;;;;;;5082902;28;20465;-79
2021/12/22 09:05:23;;;;;;;26.67;13.52;;;-1.30;99.90;;;;;;5079801;28;20043;-78
2021/12/22 09:07:48;;;;;;;24.88;13.68;;;-1.20;99.90;;;;;;5084201;28;20104;-79
2021/12/22 09:10:14;;;;;;;28.35;13.68;;;-1.20;99.90;;;;;;5081704;28;20458;-78
2021/12/22 09:12:40;;;;;;;24.38;13.48;;;-1.20;99.90;;;;;;5087990;28;20029;-78
2021/12/22 09:15:06;;;;;;;23.80;13.77;;;-1.10;99.90;;;;;;5079715;28;20021;-75
2021/12/22 09:17:31;;;;;;;26.52;14.13;;;-1.10;99.90;;;;;;5069118;28;20114;-77
2021/12/22 09:19:57;;;;;;;26.20;14.07;;;-1.00;99.90;;;;;;5083821;28;20139;-75
2021/12/22 09:22:23;;;;;;;28.02;13.80;;;-1.00;99.90;;;;;;5079317;28;20513;-76
2021/12/22 09:24:49;;;;;;;26.38;14.57;;;-1.00;99.90;;;;;;5085029;28;20073;-77
2021/12/22 09:27:15;;;;;;;30.58;14.27;;;-1.00;99.90;;;;;;5081014;28;20365;-77
2021/12/22 09:29:42;;;;;;;27.30;13.88;;;-0.90;99.90;;;;;;5076864;28;20366;-75
2021/12/22 09:32:09;;;;;;;29.55;15.15;;;-1.00;99.90;;;;;;5081977;28;20079;-75
2021/12/22 09:34:34;;;;;;;30.60;14.85;;;-0.90;99.90;;;;;;5084859;28;20501;-75
2021/12/22 09:37:00;;;;;;;35.70;15.07;;;-0.90;99.90;;;;;;5079069;28;20125;-75
2021/12/22 09:39:26;;;;;;;29.38;14.88;;;-0.70;99.90;;;;;;5080782;28;20032;-75
2021/12/22 09:41:52;;;;;;;34.28;15.88;;;-0.60;99.90;;;;;;5082835;28;20028;-78
2021/12/22 09:44:17;;;;;;;29.67;15.45;;;-0.60;99.90;;;;;;5082998;28;20797;-76
2021/12/22 09:46:44;;;;;;;28.88;15.63;;;-0.50;99.90;;;;;;5080548;28;20680;-75
2021/12/22 09:49:35;;;;;;;29.02;16.23;;;-0.50;99.90;;;;;;5081456;28;20025;-76
2021/12/22 09:52:18;;;;;;;32.55;16.77;;;-0.50;99.90;;;;;;5081171;28;20051;-77
2021/12/22 09:54:48;;;;;;;38.22;16.58;;;-0.40;99.90;;;;;;5079893;28;20388;-77
2021/12/22 09:57:17;;;;;;;35.90;17.42;;;-0.30;99.90;;;;;;5084933;28;20029;-78
2021/12/22 09:59:47;;;;;;;33.38;17.63;;;-0.20;99.90;;;;;;5078420;28;20056;-77
2021/12/22 10:02:13;;;;;;;36.83;20.08;;;-0.10;99.90;;;;;;5083345;28;20373;-78
2021/12/22 10:04:39;;;;;;;43.47;20.42;;;-0.10;99.90;;;;;;5082217;28;20034;-77
2021/12/22 10:07:08;;;;;;;44.00;23.98;;;-0.10;99.90;;;;;;5081826;28;20032;-78
2021/12/22 10:09:42;;;;;;;41.25;21.67;;;0.00;99.90;;;;;;5080880;28;20490;-79
2021/12/22 10:12:24;;;;;;;42.42;21.70;;;0.10;99.90;;;;;;5079885;28;20044;-78
2021/12/22 10:14:51;;;;;;;46.03;22.70;;;0.20;99.90;;;;;;5080049;28;20012;-76
2021/12/22 10:17:38;;;;;;;41.70;24.25;;;0.20;99.90;;;;;;5083453;28;20140;-75
2021/12/22 10:20:11;;;;;;;45.17;22.88;;;0.30;99.90;;;;;;5078441;28;20016;-74
2021/12/22 10:22:43;;;;;;;43.50;24.13;;;0.40;99.90;;;;;;5076711;28;20027;-75
2021/12/22 10:25:20;;;;;;;41.78;25.77;;;0.50;99.90;;;;;;5081640;28;20022;-75
2021/12/22 10:28:08;;;;;;;46.97;27.40;;;0.50;99.90;;;;;;5079109;28;20040;-75
2021/12/22 10:30:45;;;;;;;43.55;26.35;;;0.50;99.90;;;;;;5077684;28;20029;-78
2021/12/22 10:33:21;;;;;;;41.53;23.60;;;0.60;99.90;;;;;;5076897;28;20028;-78
2021/12/22 10:35:53;;;;;;;44.33;25.63;;;0.60;99.90;;;;;;5080045;28;20032;-78
2021/12/22 10:38:24;;;;;;;45.08;22.45;;;0.60;99.90;;;;;;5082439;28;20078;-77
2021/12/22 10:41:00;;;;;;;35.53;21.42;;;0.70;99.90;;;;;;5077997;28;20102;-78
2021/12/22 10:43:32;;;;;;;42.13;22.20;;;0.80;99.90;;;;;;5080051;28;20043;-78
2021/12/22 10:46:00;;;;;;;50.50;25.77;;;0.80;99.90;;;;;;5086169;28;20024;-78
2021/12/22 10:51:30;;;;;;;37.67;21.83;;;0.80;99.90;;;;;;5078086;28;20039;-76
2021/12/22 10:53:58;;;;;;;43.65;23.67;;;0.70;99.90;;;;;;5079389;28;20395;-78
2021/12/22 10:56:28;;;;;;;40.22;25.15;;;0.60;99.90;;;;;;5082534;28;20464;-79
2021/12/22 10:59:11;;;;;;;40.00;25.65;;;0.70;99.90;;;;;;5081919;28;20384;-78
2021/12/22 11:01:53;;;;;;;40.53;23.63;;;0.80;99.90;;;;;;5080843;28;20028;-78
2021/12/22 11:04:23;;;;;;;43.03;24.80;;;0.80;99.90;;;;;;5081249;28;20035;-78
2021/12/22 11:06:51;;;;;;;43.15;24.88;;;0.90;99.90;;;;;;5079369;28;20024;-79
2021/12/22 11:09:17;;;;;;;41.03;25.25;;;0.90;99.90;;;;;;5077926;28;20035;-79
2021/12/22 11:11:46;;;;;;;43.28;23.40;;;0.90;99.90;;;;;;5079539;28;20119;-79
2021/12/22 11:14:14;;;;;;;39.33;21.90;;;1.00;99.90;;;;;;5077542;28;20488;-79
2021/12/22 11:17:05;;;;;;;35.97;21.38;;;1.00;99.90;;;;;;5079611;28;20053;-78
2021/12/22 11:20:00;;;;;;;37.05;21.80;;;1.10;99.90;;;;;;5083679;28;20401;-80
2021/12/22 11:23:00;;;;;;;39.30;22.98;;;1.20;99.90;;;;;;5085944;28;20103;-79
2021/12/22 11:25:28;;;;;;;41.85;21.58;;;1.20;99.90;;;;;;5090448;28;20402;-79
2021/12/22 11:27:55;;;;;;;34.88;21.55;;;1.20;99.90;;;;;;5089260;28;20114;-77
2021/12/22 11:30:23;;;;;;;33.08;22.05;;;1.20;99.90;;;;;;5085737;28;20033;-76
2021/12/22 11:32:49;;;;;;;33.63;19.10;;;1.20;99.90;;;;;;5082604;28;20020;-75
2021/12/22 11:35:16;;;;;;;34.17;19.60;;;1.30;99.90;;;;;;5080256;28;20499;-74
2021/12/22 11:37:42;;;;;;;30.98;18.73;;;1.40;99.90;;;;;;5083424;28;20096;-76
2021/12/22 11:40:10;;;;;;;35.78;21.13;;;1.40;99.90;;;;;;5084778;28;20028;-74
2021/12/22 11:42:40;;;;;;;34.25;22.15;;;1.50;99.90;;;;;;5081313;28;20024;-74
2021/12/22 11:45:23;;;;;;;33.70;19.52;;;1.50;99.90;;;;;;5084416;28;20055;-75
2021/12/22 11:47:50;;;;;;;30.95;18.48;;;1.60;99.90;;;;;;5081620;28;20496;-74
2021/12/22 11:50:21;;;;;;;37.53;20.40;;;1.70;99.90;;;;;;5084499;28;20033;-75
2021/12/22 11:52:55;;;;;;;29.83;19.52;;;1.70;99.90;;;;;;5082970;28;20522;-74
2021/12/22 11:55:48;;;;;;;31.17;19.75;;;1.70;99.90;;;;;;5081519;28;20024;-74
2021/12/22 11:58:20;;;;;;;29.13;18.92;;;1.80;99.90;;;;;;5072383;28;20400;-75
2021/12/22 12:00:55;;;;;;;35.08;22.85;;;1.90;99.90;;;;;;5081056;28;20081;-75
2021/12/22 12:03:37;;;;;;;34.35;19.92;;;1.90;99.90;;;;;;5082662;28;20039;-76
2021/12/22 12:06:13;;;;;;;26.67;17.40;;;1.90;99.90;;;;;;5083652;28;20028;-75
2021/12/22 12:08:53;;;;;;;26.50;15.25;;;1.80;99.90;;;;;;5083523;28;20020;-77
2021/12/22 12:11:47;;;;;;;24.27;15.60;;;1.80;99.90;;;;;;5086381;28;20020;-76
2021/12/22 12:14:37;;;;;;;29.92;15.82;;;1.80;99.90;;;;;;5082452;28;20032;-76
2021/12/22 12:23:33;;;;;;;27.05;16.65;;;1.90;99.90;;;;;;5080566;28;20120;-75
2021/12/22 12:26:04;;;;;;;27.45;17.13;;;1.90;99.90;;;;;;5080760;28;20031;-75
2021/12/22 12:28:31;;;;;;;32.33;18.73;;;1.90;99.90;;;;;;5082015;28;20047;-74
2021/12/22 12:31:01;;;;;;;27.58;16.58;;;2.00;99.90;;;;;;5088061;28;20086;-74
2021/12/22 12:33:31;;;;;;;23.90;15.52;;;2.00;99.90;;;;;;5083400;28;20024;-75
2021/12/22 12:36:03;;;;;;;25.65;14.55;;;2.00;99.90;;;;;;5084880;28;20476;-73
2021/12/22 12:38:50;;;;;;;29.63;17.65;;;2.10;99.90;;;;;;5081827;28;20020;-73
2021/12/22 12:41:27;;;;;;;31.60;17.65;;;2.10;99.90;;;;;;5082960;28;20016;-73
2021/12/22 12:43:56;;;;;;;28.08;17.17;;;2.10;99.90;;;;;;5083425;28;20028;-72
2021/12/22 12:46:40;;;;;;;32.97;18.48;;;2.20;99.90;;;;;;5086392;28;20044;-72
2021/12/22 12:49:09;;;;;;;37.75;22.65;;;2.30;99.90;;;;;;5076271;28;20068;-72
2021/12/22 12:51:38;;;;;;;27.70;16.83;;;2.20;99.90;;;;;;5077904;28;20485;-73
2021/12/22 12:54:09;;;;;;;27.70;16.67;;;2.20;99.90;;;;;;5087746;28;20036;-73
2021/12/22 12:56:48;;;;;;;26.60;16.07;;;2.30;99.90;;;;;;5080801;28;20020;-74
2021/12/22 12:59:41;;;;;;;24.25;13.75;;;2.20;99.90;;;;;;5078815;28;20085;-75
2021/12/22 13:02:08;;;;;;;25.15;15.07;;;2.30;99.90;;;;;;5079135;28;20481;-75
2021/12/22 13:04:39;;;;;;;25.17;14.40;;;2.30;99.90;;;;;;5086024;28;20051;-72